createdAt,value
2022-11-07T00:03:23.193Z,9.48
2022-11-07T00:08:32.165Z,7.57
2022-11-07T00:13:41.933Z,7.45
2022-11-07T00:18:45.938Z,8.13
2022-11-07T00:23:54.217Z,7.10
2022-11-07T00:28:56.460Z,11.27
2022-11-07T00:34:03.503Z,10.38
2022-11-07T00:39:07.910Z,10.52
2022-11-07T00:44:09.820Z,9.60
2022-11-07T00:49:13.062Z,10.52
2022-11-07T00:54:16.497Z,8.38
2022-11-07T00:59:18.926Z,10.20
2022-11-07T01:04:43.015Z,9.63
2022-11-07T01:09:48.298Z,8.63
2022-11-07T01:15:02.584Z,5.80
2022-11-07T01:20:11.961Z,5.47
2022-11-07T01:25:14.685Z,6.13
2022-11-07T01:30:17.947Z,5.43
2022-11-07T01:35:21.881Z,5.88
2022-11-07T01:40:26.513Z,5.75
2022-11-07T01:45:32.576Z,6.03
2022-11-07T01:50:35.848Z,5.68
2022-11-07T01:55:39.493Z,7.10
2022-11-07T02:00:42.403Z,5.43
2022-11-07T02:06:06.306Z,6.13
2022-11-07T02:11:12.366Z,4.43
2022-11-07T02:16:19.318Z,5.43
2022-11-07T02:25:52.543Z,6.20
2022-11-07T02:30:59.915Z,6.50
2022-11-07T02:36:04.487Z,6.53
2022-11-07T02:41:16.160Z,7.20
2022-11-07T02:46:22.251Z,5.72
2022-11-07T02:51:28.352Z,5.88
2022-11-07T02:56:36.391Z,6.50
2022-11-07T03:01:45.017Z,5.47
2022-11-07T03:06:52.188Z,4.65
2022-11-07T03:11:56.651Z,3.78
2022-11-07T03:17:03.981Z,4.75
2022-11-07T03:22:06.636Z,6.82
2022-11-07T03:27:11.334Z,4.68
2022-11-07T03:32:13.397Z,4.95
2022-11-07T03:37:27.798Z,5.78
2022-11-07T03:42:47.362Z,5.53
2022-11-07T03:47:54.420Z,7.30
2022-11-07T03:52:57.939Z,5.63
2022-11-07T03:58:00.077Z,12.55
2022-11-07T04:03:04.580Z,6.30
2022-11-07T04:08:06.626Z,5.15
2022-11-07T04:13:28.288Z,5.50
2022-11-07T04:18:30.285Z,6.75
2022-11-07T04:23:32.618Z,6.30
2022-11-07T04:28:34.602Z,6.05
2022-11-07T04:33:36.757Z,8.02
2022-11-07T04:38:50.466Z,8.57
2022-11-07T04:43:52.416Z,5.78
2022-11-07T04:48:54.922Z,6.28
2022-11-07T04:53:56.898Z,6.70
2022-11-07T04:58:58.817Z,7.40
2022-11-07T05:04:02.461Z,4.95
2022-11-07T05:09:04.530Z,5.95
2022-11-07T05:14:09.684Z,5.47
2022-11-07T05:19:19.182Z,6.85
2022-11-07T05:24:21.185Z,7.10
2022-11-07T05:29:23.082Z,4.78
2022-11-07T05:34:25.234Z,7.05
2022-11-07T05:44:30.439Z,5.10
2022-11-07T05:49:32.380Z,8.80
2022-11-07T05:54:34.317Z,5.13
2022-11-07T05:59:36.232Z,5.45
2022-11-07T06:04:38.453Z,8.48
2022-11-07T06:14:42.114Z,9.17
2022-11-07T06:19:44.106Z,12.57
2022-11-07T06:29:48.156Z,8.43
2022-11-07T06:40:01.514Z,11.55
2022-11-07T06:45:04.413Z,10.40
2022-11-07T06:50:06.861Z,10.65
2022-11-07T06:55:09.402Z,8.60
2022-11-07T07:05:18.453Z,6.45
2022-11-07T07:10:24.980Z,6.93
2022-11-07T07:15:50.447Z,6.60
2022-11-07T07:21:01.810Z,6.57
2022-11-07T07:26:07.906Z,8.82
2022-11-07T07:31:15.668Z,10.40
2022-11-07T07:36:21.016Z,6.80
2022-11-07T07:41:23.188Z,6.72
2022-11-07T07:46:25.539Z,4.85
2022-11-07T07:51:27.554Z,6.60
2022-11-07T07:56:30.677Z,9.13
2022-11-07T08:01:32.697Z,5.88
2022-11-07T08:06:43.446Z,7.35
2022-11-07T08:11:49.462Z,12.05
2022-11-07T08:16:51.428Z,8.02
2022-11-07T08:21:53.507Z,8.25
2022-11-07T08:26:56.092Z,9.30
2022-11-07T08:31:58.172Z,8.00
2022-11-07T08:37:00.079Z,5.68
2022-11-07T08:42:02.012Z,7.63
2022-11-07T08:47:08.431Z,6.93
2022-11-07T08:52:10.682Z,10.07
2022-11-07T08:57:12.760Z,10.70
2022-11-07T09:02:57.276Z,6.50
2022-11-07T09:07:40.119Z,11.95
2022-11-07T09:12:47.205Z,10.07
2022-11-07T09:17:51.070Z,7.50
2022-11-07T09:22:56.865Z,6.97
2022-11-07T09:28:03.134Z,9.00
2022-11-07T09:33:05.622Z,10.48
2022-11-07T09:38:07.673Z,8.35
2022-11-07T09:43:24.361Z,10.07
2022-11-07T09:48:38.304Z,8.20
2022-11-07T09:53:44.955Z,8.65
2022-11-07T09:58:54.563Z,9.98
2022-11-07T10:04:23.656Z,13.18
2022-11-07T10:09:31.499Z,12.57
2022-11-07T10:14:57.999Z,12.68
2022-11-07T10:20:29.981Z,11.45
2022-11-07T10:26:01.255Z,9.43
2022-11-07T10:31:07.732Z,9.88
2022-11-07T10:36:09.664Z,18.33
2022-11-07T10:41:22.116Z,10.73
2022-11-07T10:46:54.470Z,13.13
2022-11-07T10:52:20.674Z,7.47
2022-11-07T10:57:24.067Z,6.10
2022-11-07T11:02:43.889Z,9.85
2022-11-07T11:07:48.248Z,17.02
2022-11-07T11:12:50.920Z,19.33
2022-11-07T11:18:06.852Z,18.08
2022-11-07T11:23:27.912Z,12.07
2022-11-07T11:29:15.951Z,6.63
2022-11-07T11:34:46.167Z,14.05
2022-11-07T11:40:28.598Z,1.85
2022-11-07T11:45:36.566Z,1.75
2022-11-07T11:50:43.418Z,3.95
2022-11-07T11:55:56.749Z,2.25
2022-11-07T12:06:42.750Z,5.70
2022-11-07T12:12:13.833Z,6.25
2022-11-07T12:17:46.233Z,2.70
2022-11-07T12:23:27.383Z,2.15
2022-11-07T12:28:36.757Z,3.45
2022-11-07T12:33:47.823Z,6.15
2022-11-07T12:38:52.004Z,3.10
2022-11-07T12:43:59.730Z,2.55
2022-11-07T12:49:28.018Z,2.85
2022-11-07T12:54:45.309Z,2.70
2022-11-07T13:00:01.896Z,4.80
2022-11-07T13:05:29.651Z,3.08
2022-11-07T13:10:55.520Z,5.03
2022-11-07T13:16:15.545Z,3.45
2022-11-07T13:21:20.006Z,3.25
2022-11-07T13:32:14.676Z,3.35
2022-11-07T13:37:47.997Z,4.43
2022-11-07T13:42:58.697Z,3.35
2022-11-07T13:48:23.650Z,2.80
2022-11-07T13:53:35.034Z,3.65
2022-11-07T13:58:39.575Z,2.67
2022-11-07T14:03:41.882Z,4.38
2022-11-07T14:08:48.692Z,4.10
2022-11-07T14:13:54.282Z,5.63
2022-11-07T14:18:58.667Z,4.53
2022-11-07T14:24:01.280Z,6.72
2022-11-07T14:29:35.254Z,4.97
2022-11-07T14:34:44.495Z,5.00
2022-11-07T14:39:48.855Z,4.40
2022-11-07T14:44:55.635Z,4.32
2022-11-07T14:49:59.873Z,3.55
2022-11-07T14:55:53.306Z,2.85
2022-11-07T15:01:10.931Z,3.72
2022-11-07T15:06:25.831Z,3.70
2022-11-07T15:11:34.526Z,6.13
2022-11-07T15:16:39.190Z,5.97
2022-11-07T15:22:00.345Z,3.97
2022-11-07T15:27:06.768Z,3.87
2022-11-07T15:32:19.601Z,3.60
2022-11-07T15:37:23.940Z,4.72
2022-11-07T15:42:25.941Z,4.25
2022-11-07T15:47:28.019Z,3.97
2022-11-07T15:52:30.162Z,6.38
2022-11-07T15:57:35.484Z,5.30
2022-11-07T16:02:38.877Z,6.20
2022-11-07T16:07:45.198Z,4.43
2022-11-07T16:12:47.679Z,3.72
2022-11-07T16:17:49.947Z,8.85
2022-11-07T16:22:52.433Z,5.43
2022-11-07T16:27:56.790Z,6.85
2022-11-07T16:32:58.942Z,4.28
2022-11-07T16:38:00.933Z,4.05
2022-11-07T16:43:03.575Z,6.28
2022-11-07T16:48:06.281Z,6.72
2022-11-07T16:53:13.437Z,5.05
2022-11-07T16:58:29.984Z,2.72
2022-11-07T17:03:33.069Z,5.80
2022-11-07T17:08:38.732Z,6.97
2022-11-07T17:13:41.033Z,5.53
2022-11-07T17:18:43.981Z,10.15
2022-11-07T17:23:45.968Z,3.85
2022-11-07T17:28:49.478Z,4.63
2022-11-07T17:33:51.690Z,3.90
2022-11-07T17:38:54.897Z,5.28
2022-11-07T17:44:00.415Z,5.18
2022-11-07T17:49:07.125Z,5.70
2022-11-07T17:54:13.848Z,4.93
2022-11-07T17:59:17.819Z,4.22
2022-11-07T18:04:19.974Z,5.18
2022-11-07T18:09:21.985Z,6.02
2022-11-07T18:14:25.259Z,5.32
2022-11-07T18:19:27.325Z,4.75
2022-11-07T18:24:29.573Z,6.30
2022-11-07T18:29:32.085Z,5.40
2022-11-07T18:34:34.220Z,5.47
2022-11-07T18:39:37.794Z,5.57
2022-11-07T18:44:39.982Z,6.25
2022-11-07T18:49:42.017Z,5.40
2022-11-07T18:54:44.075Z,6.22
2022-11-07T18:59:46.406Z,6.38
2022-11-07T19:04:48.820Z,5.03
2022-11-07T19:09:50.839Z,6.72
2022-11-07T19:14:52.900Z,5.80
2022-11-07T19:19:55.069Z,6.25
2022-11-07T19:24:58.374Z,6.72
2022-11-07T19:30:00.711Z,7.22
2022-11-07T19:35:03.005Z,10.85
2022-11-07T19:40:06.809Z,8.50
2022-11-07T19:45:09.593Z,9.40
2022-11-07T19:50:12.493Z,13.20
2022-11-07T19:55:14.610Z,13.23
2022-11-07T20:00:17.605Z,11.68
2022-11-07T20:05:24.381Z,10.73
2022-11-07T20:10:27.263Z,11.05
2022-11-07T20:15:29.500Z,9.20
2022-11-07T20:20:31.698Z,8.93
2022-11-07T20:25:34.144Z,11.38
2022-11-07T20:30:36.335Z,8.93
2022-11-07T20:35:38.400Z,11.23
2022-11-07T20:40:40.703Z,8.77
2022-11-07T20:45:42.895Z,9.07
2022-11-07T20:50:45.054Z,12.20
2022-11-07T20:55:47.129Z,10.65
2022-11-07T21:00:51.718Z,7.70
2022-11-07T21:05:54.485Z,7.13
2022-11-07T21:10:57.186Z,10.32
2022-11-07T21:15:59.362Z,7.13
2022-11-07T21:21:09.155Z,6.38
2022-11-07T21:26:16.192Z,8.23
2022-11-07T21:31:23.943Z,7.03
2022-11-07T21:36:29.022Z,9.98
2022-11-07T21:41:34.834Z,7.85
2022-11-07T21:46:37.062Z,7.20
2022-11-07T21:51:39.249Z,8.98
2022-11-07T21:56:41.346Z,9.40
2022-11-07T22:01:44.519Z,10.50
2022-11-07T22:06:46.851Z,10.63
2022-11-07T22:11:51.720Z,9.32
2022-11-07T22:16:55.983Z,29.60
2022-11-07T22:21:58.588Z,14.02
2022-11-07T22:27:01.346Z,14.60
2022-11-07T22:32:03.658Z,10.27
2022-11-07T22:37:05.817Z,11.32
2022-11-07T22:42:07.912Z,9.27
2022-11-07T22:47:09.912Z,9.18
2022-11-07T22:57:17.837Z,8.30
2022-11-07T23:02:20.543Z,11.65
2022-11-07T23:07:22.631Z,10.20
2022-11-07T23:12:27.580Z,10.02
2022-11-07T23:17:31.042Z,10.63
2022-11-07T23:22:33.175Z,9.82
2022-11-07T23:27:35.467Z,11.30
2022-11-07T23:32:37.672Z,8.82
2022-11-07T23:37:39.680Z,8.80
2022-11-07T23:48:02.180Z,9.10
2022-11-07T23:53:24.189Z,9.95
2022-11-07T23:58:45.102Z,11.55
